createdAt,value
2022-08-27T00:01:12.782Z,22.05
2022-08-27T00:04:09.372Z,22.11
2022-08-27T00:06:49.054Z,21.96
2022-08-27T00:09:27.109Z,21.96
2022-08-27T00:11:54.997Z,22.05
2022-08-27T00:14:35.918Z,22.00
2022-08-27T00:17:21.336Z,21.91
2022-08-27T00:19:59.328Z,22.02
2022-08-27T00:22:48.928Z,21.99
2022-08-27T00:25:30.333Z,21.88
2022-08-27T00:28:29.269Z,21.85
2022-08-27T00:31:29.956Z,21.70
2022-08-27T00:34:03.058Z,21.62
2022-08-27T00:36:49.175Z,21.63
2022-08-27T00:39:40.626Z,21.69
2022-08-27T00:42:17.744Z,21.66
2022-08-27T00:45:22.645Z,21.54
2022-08-27T00:48:02.994Z,21.63
2022-08-27T00:51:04.688Z,21.66
2022-08-27T00:53:43.142Z,21.57
2022-08-27T00:59:30.864Z,21.48
2022-08-27T01:02:13.383Z,21.60
2022-08-27T01:04:52.005Z,21.75
2022-08-27T01:07:39.682Z,21.79
2022-08-27T01:10:17.323Z,21.82
2022-08-27T01:12:53.529Z,21.80
2022-08-27T01:15:22.883Z,21.71
2022-08-27T01:17:51.019Z,21.69
2022-08-27T01:20:21.649Z,21.73
2022-08-27T01:22:57.266Z,21.75
2022-08-27T01:25:27.109Z,21.71
2022-08-27T01:27:58.192Z,21.76
2022-08-27T01:30:25.987Z,21.67
2022-08-27T01:32:54.389Z,21.70
2022-08-27T01:35:23.262Z,21.64
2022-08-27T01:37:53.257Z,21.57
2022-08-27T01:40:25.943Z,21.60
2022-08-27T01:42:56.141Z,21.53
2022-08-27T01:45:26.710Z,21.50
2022-08-27T01:47:54.460Z,21.52
2022-08-27T01:50:24.700Z,21.46
2022-08-27T01:52:53.004Z,21.48
2022-08-27T01:55:23.793Z,21.61
2022-08-27T01:57:52.708Z,21.50
2022-08-27T02:00:23.492Z,21.46
2022-08-27T02:02:51.461Z,21.44
2022-08-27T02:05:19.813Z,21.51
2022-08-27T02:07:47.595Z,21.49
2022-08-27T02:10:20.333Z,21.56
2022-08-27T02:12:48.009Z,21.48
2022-08-27T02:15:17.533Z,21.37
2022-08-27T02:17:45.027Z,21.32
2022-08-27T02:20:13.941Z,21.25
2022-08-27T02:22:41.939Z,21.22
2022-08-27T02:25:12.121Z,21.14
2022-08-27T02:27:41.334Z,21.18
2022-08-27T02:30:11.532Z,21.06
2022-08-27T02:32:40.649Z,21.03
2022-08-27T02:35:09.034Z,21.07
2022-08-27T02:37:37.975Z,21.09
2022-08-27T02:40:06.786Z,21.21
2022-08-27T02:42:34.411Z,21.04
2022-08-27T02:45:01.894Z,21.09
2022-08-27T02:47:29.415Z,21.16
2022-08-27T02:49:58.564Z,21.08
2022-08-27T02:52:27.380Z,21.15
2022-08-27T02:54:55.138Z,21.06
2022-08-27T02:57:23.620Z,21.21
2022-08-27T02:59:51.385Z,21.05
2022-08-27T03:02:19.613Z,21.10
2022-08-27T03:04:48.008Z,21.10
2022-08-27T03:07:18.928Z,21.10
2022-08-27T03:09:46.711Z,21.10
2022-08-27T03:12:14.202Z,21.00
2022-08-27T03:14:41.783Z,21.05
2022-08-27T03:17:23.239Z,20.98
2022-08-27T03:19:50.808Z,20.99
2022-08-27T03:22:19.642Z,21.01
2022-08-27T03:24:47.137Z,21.01
2022-08-27T03:27:15.341Z,20.98
2022-08-27T03:29:42.943Z,20.86
2022-08-27T03:32:10.444Z,20.93
2022-08-27T03:34:37.957Z,20.97
2022-08-27T03:37:05.581Z,21.01
2022-08-27T03:39:34.441Z,20.94
2022-08-27T03:42:01.990Z,20.94
2022-08-27T03:44:29.877Z,20.93
2022-08-27T03:46:57.437Z,20.95
2022-08-27T03:49:25.104Z,20.97
2022-08-27T03:51:54.301Z,20.92
2022-08-27T03:54:21.849Z,20.91
2022-08-27T03:56:50.787Z,20.80
2022-08-27T03:59:18.595Z,20.74
2022-08-27T04:01:46.299Z,20.84
2022-08-27T04:04:14.009Z,20.72
2022-08-27T04:06:41.879Z,20.63
2022-08-27T04:09:09.447Z,20.66
2022-08-27T04:11:37.274Z,20.75
2022-08-27T04:14:20.844Z,20.83
2022-08-27T04:16:54.845Z,20.74
2022-08-27T04:19:26.886Z,20.85
2022-08-27T04:21:55.019Z,20.80
2022-08-27T04:24:22.836Z,20.84
2022-08-27T04:26:50.292Z,21.07
2022-08-27T04:29:19.131Z,21.15
2022-08-27T04:31:46.612Z,20.96
2022-08-27T04:34:14.108Z,21.14
2022-08-27T04:36:41.657Z,21.03
2022-08-27T04:39:09.180Z,21.22
2022-08-27T04:41:36.872Z,21.23
2022-08-27T04:44:06.651Z,21.33
2022-08-27T04:46:38.006Z,21.51
2022-08-27T04:49:10.534Z,21.56
2022-08-27T04:51:40.072Z,21.52
2022-08-27T04:54:08.513Z,21.52
2022-08-27T04:56:37.779Z,21.40
2022-08-27T04:59:06.749Z,21.40
2022-08-27T05:01:36.166Z,21.43
2022-08-27T05:04:04.447Z,21.43
2022-08-27T05:06:32.100Z,21.40
2022-08-27T05:08:59.846Z,21.35
2022-08-27T05:11:32.089Z,21.32
2022-08-27T05:13:59.910Z,21.39
2022-08-27T05:16:27.441Z,21.39
2022-08-27T05:18:56.285Z,21.40
2022-08-27T05:21:27.184Z,21.36
2022-08-27T05:23:56.417Z,21.36
2022-08-27T05:26:24.115Z,21.36
2022-08-27T05:28:51.714Z,21.37
2022-08-27T05:31:20.725Z,21.36
2022-08-27T05:33:49.261Z,21.38
2022-08-27T05:36:20.434Z,21.36
2022-08-27T05:38:49.294Z,21.36
2022-08-27T05:41:18.708Z,21.30
2022-08-27T05:43:50.104Z,21.31
2022-08-27T05:46:20.346Z,21.34
2022-08-27T05:48:49.987Z,21.38
2022-08-27T05:51:25.368Z,21.31
2022-08-27T05:53:56.402Z,21.34
2022-08-27T05:56:26.151Z,21.35
2022-08-27T05:59:11.773Z,21.36
2022-08-27T06:01:41.150Z,21.46
2022-08-27T06:04:09.216Z,21.43
2022-08-27T06:06:39.627Z,21.40
2022-08-27T07:27:40.414Z,22.05
2022-08-27T07:30:27.948Z,22.11
2022-08-27T07:36:07.457Z,22.21
2022-08-27T07:38:56.618Z,22.25
2022-08-27T07:41:58.828Z,22.20
2022-08-27T07:45:09.892Z,22.17
2022-08-27T07:47:37.534Z,22.29
2022-08-27T07:50:05.822Z,22.32
2022-08-27T07:52:33.863Z,22.31
2022-08-27T07:55:03.043Z,22.36
2022-08-27T07:57:32.518Z,22.52
2022-08-27T08:00:02.724Z,22.58
2022-08-27T08:02:31.496Z,22.60
2022-08-27T08:05:01.417Z,22.61
2022-08-27T08:07:29.182Z,22.62
2022-08-27T08:09:57.158Z,22.69
2022-08-27T08:12:26.328Z,22.72
2022-08-27T08:14:57.750Z,22.93
2022-08-27T08:17:26.744Z,22.96
2022-08-27T08:20:15.726Z,23.02
2022-08-27T08:22:42.076Z,23.14
2022-08-27T08:25:12.829Z,23.28
2022-08-27T08:27:41.465Z,23.36
2022-08-27T08:30:10.485Z,23.38
2022-08-27T08:32:39.802Z,23.52
2022-08-27T08:35:08.197Z,23.64
2022-08-27T08:37:36.542Z,23.60
2022-08-27T08:40:05.631Z,23.51
2022-08-27T08:42:37.960Z,23.49
2022-08-27T08:45:07.466Z,23.45
2022-08-27T08:47:44.058Z,23.62
2022-08-27T08:50:19.722Z,23.70
2022-08-27T08:52:53.355Z,23.74
2022-08-27T08:55:38.591Z,23.65
2022-08-27T08:58:15.123Z,23.70
2022-08-27T09:00:44.477Z,24.03
2022-08-27T09:03:14.768Z,24.15
2022-08-27T09:05:47.284Z,24.14
2022-08-27T09:08:37.743Z,24.12
2022-08-27T09:11:08.854Z,24.06
2022-08-27T09:13:39.121Z,24.08
2022-08-27T09:16:07.361Z,24.11
2022-08-27T09:18:39.342Z,24.10
2022-08-27T09:21:15.001Z,24.14
2022-08-27T09:24:02.112Z,24.15
2022-08-27T09:26:31.646Z,24.23
2022-08-27T09:29:19.801Z,24.11
2022-08-27T09:31:53.555Z,24.18
2022-08-27T09:34:22.997Z,24.08
2022-08-27T09:36:53.484Z,24.12
2022-08-27T09:39:27.463Z,24.08
2022-08-27T09:41:55.057Z,24.04
2022-08-27T09:44:23.023Z,24.06
2022-08-27T09:46:56.631Z,24.17
2022-08-27T09:49:26.920Z,24.25
2022-08-27T09:51:55.092Z,24.26
2022-08-27T09:54:32.140Z,24.28
2022-08-27T09:56:59.990Z,24.27
2022-08-27T09:59:30.444Z,24.30
2022-08-27T10:02:09.138Z,24.30
2022-08-27T10:04:50.202Z,24.35
2022-08-27T10:07:23.793Z,24.27
2022-08-27T10:09:55.993Z,24.28
2022-08-27T10:12:26.961Z,24.31
2022-08-27T10:14:57.160Z,24.29
2022-08-27T10:17:32.681Z,24.31
2022-08-27T10:20:06.674Z,24.36
2022-08-27T10:22:42.214Z,24.37
2022-08-27T10:25:18.427Z,24.39
2022-08-27T10:27:52.933Z,24.46
2022-08-27T10:30:24.360Z,24.45
2022-08-27T10:32:58.614Z,24.52
2022-08-27T10:35:37.413Z,24.56
2022-08-27T10:38:20.029Z,24.55
2022-08-27T10:40:52.103Z,24.60
2022-08-27T10:43:32.776Z,24.66
2022-08-27T10:46:06.069Z,24.67
2022-08-27T10:48:36.743Z,24.85
2022-08-27T10:51:11.900Z,24.87
2022-08-27T10:53:44.233Z,24.75
2022-08-27T10:56:16.405Z,24.77
2022-08-27T10:58:58.837Z,24.87
2022-08-27T11:01:37.031Z,24.89
2022-08-27T11:04:08.160Z,24.98
2022-08-27T11:06:40.040Z,25.04
2022-08-27T11:09:12.677Z,24.96
2022-08-27T11:14:34.634Z,24.95
2022-08-27T11:17:05.905Z,24.96
2022-08-27T11:19:43.623Z,24.95
2022-08-27T11:22:23.734Z,24.94
2022-08-27T11:24:58.427Z,25.05
2022-08-27T11:27:29.216Z,25.06
2022-08-27T11:30:00.968Z,25.01
2022-08-27T11:33:41.648Z,24.91
2022-08-27T11:36:07.078Z,24.96
2022-08-27T11:40:01.807Z,25.08
2022-08-27T11:48:44.073Z,25.23
2022-08-27T11:51:48.406Z,25.24
2022-08-27T11:55:17.453Z,25.40
2022-08-27T11:59:22.597Z,25.43
2022-08-27T12:02:16.596Z,25.54
2022-08-27T12:05:28.006Z,25.59
2022-08-27T12:12:14.555Z,25.66
2022-08-27T12:15:33.862Z,25.57
2022-08-27T12:19:23.907Z,25.57
2022-08-27T12:22:48.256Z,25.56
2022-08-27T12:25:45.222Z,25.67
2022-08-27T12:28:51.879Z,25.57
2022-08-27T12:32:05.369Z,25.43
2022-08-27T12:35:38.827Z,25.50
2022-08-27T12:47:53.137Z,26.20
2022-08-27T12:50:44.760Z,26.16
2022-08-27T12:53:30.410Z,26.26
2022-08-27T12:57:12.281Z,26.27
2022-08-27T13:01:15.517Z,26.18
2022-08-27T13:04:11.596Z,26.35
2022-08-27T13:07:23.180Z,26.51
2022-08-27T13:10:35.982Z,26.61
2022-08-27T13:13:41.940Z,26.62
2022-08-27T13:16:45.263Z,26.76
2022-08-27T13:23:16.181Z,26.63
2022-08-27T13:26:13.654Z,26.74
2022-08-27T13:32:39.028Z,26.91
2022-08-27T13:39:42.868Z,26.52
2022-08-27T13:42:55.206Z,26.63
2022-08-27T13:45:38.764Z,26.59
2022-08-27T13:49:00.509Z,26.46
2022-08-27T13:51:55.550Z,26.46
2022-08-27T13:56:02.440Z,26.38
2022-08-27T13:58:14.706Z,26.24
2022-08-27T14:00:42.763Z,26.15
2022-08-27T14:03:32.754Z,26.19
2022-08-27T14:06:00.817Z,26.10
2022-08-27T14:08:32.771Z,26.03
2022-08-27T14:11:02.550Z,25.88
2022-08-27T14:13:31.459Z,25.90
2022-08-27T14:16:00.635Z,25.85
2022-08-27T14:18:54.979Z,25.71
2022-08-27T14:21:18.901Z,25.56
2022-08-27T14:23:47.801Z,25.07
2022-08-27T14:26:15.413Z,25.13
2022-08-27T14:28:43.539Z,25.50
2022-08-27T14:31:12.012Z,25.54
2022-08-27T14:33:39.594Z,25.46
2022-08-27T14:36:08.323Z,25.48
2022-08-27T14:38:39.524Z,25.50
2022-08-27T14:41:10.302Z,25.40
2022-08-27T14:43:38.534Z,25.52
2022-08-27T14:46:08.641Z,25.64
2022-08-27T14:48:37.000Z,25.55
2022-08-27T14:51:20.350Z,25.45
2022-08-27T15:29:50.697Z,25.86
2022-08-27T15:32:23.216Z,25.67
2022-08-27T15:34:55.480Z,25.57
2022-08-27T15:37:23.331Z,25.51
2022-08-27T15:39:50.884Z,25.61
2022-08-27T15:42:54.309Z,25.66
2022-08-27T15:45:39.844Z,25.34
2022-08-27T15:51:54.420Z,25.58
2022-08-27T15:54:57.593Z,25.61
2022-08-27T15:58:29.485Z,25.52
2022-08-27T16:01:29.215Z,25.56
2022-08-27T16:04:27.181Z,25.17
2022-08-27T16:07:33.951Z,25.22
2022-08-27T16:11:03.346Z,25.02
2022-08-27T16:14:28.683Z,25.28
2022-08-27T16:21:18.190Z,24.17
2022-08-27T16:26:50.661Z,23.65
2022-08-27T16:29:25.230Z,23.70
2022-08-27T16:31:59.281Z,23.97
2022-08-27T16:34:29.396Z,23.87
2022-08-27T16:36:57.359Z,23.48
2022-08-27T16:39:26.523Z,23.06
2022-08-27T16:41:59.584Z,22.92
2022-08-27T16:44:27.122Z,22.81
2022-08-27T16:46:56.161Z,22.73
2022-08-27T16:49:41.346Z,22.66
2022-08-27T16:52:09.259Z,22.51
2022-08-27T16:54:37.718Z,22.48
2022-08-27T16:57:05.619Z,22.54
2022-08-27T16:59:33.106Z,22.46
2022-08-27T17:02:02.182Z,22.41
2022-08-27T17:04:36.708Z,22.28
2022-08-27T17:07:07.004Z,22.41
2022-08-27T17:09:34.878Z,22.50
2022-08-27T17:12:04.347Z,22.56
2022-08-27T17:14:34.704Z,22.71
2022-08-27T17:17:04.461Z,23.01
2022-08-27T17:19:34.587Z,23.35
2022-08-27T17:22:03.973Z,23.28
2022-08-27T17:24:31.464Z,23.15
2022-08-27T17:26:58.978Z,23.37
2022-08-27T17:29:26.842Z,23.64
2022-08-27T17:31:54.399Z,23.67
2022-08-27T17:34:25.374Z,23.61
2022-08-27T17:36:53.959Z,23.40
2022-08-27T17:39:22.067Z,23.39
2022-08-27T17:41:51.144Z,23.37
2022-08-27T17:44:23.108Z,23.30
2022-08-27T17:47:10.999Z,23.32
2022-08-27T17:50:09.586Z,23.23
2022-08-27T17:53:38.867Z,23.15
2022-08-27T17:56:02.888Z,23.17
2022-08-27T17:59:25.078Z,23.16
2022-08-27T18:02:34.107Z,23.14
2022-08-27T18:05:47.320Z,23.09
2022-08-27T18:11:35.496Z,22.96
2022-08-27T18:14:20.276Z,22.97
2022-08-27T18:18:02.668Z,23.00
2022-08-27T18:20:42.761Z,22.96
2022-08-27T18:24:06.284Z,22.88
2022-08-27T18:26:25.300Z,22.81
2022-08-27T18:29:18.667Z,22.80
2022-08-27T18:32:14.008Z,22.76
2022-08-27T18:34:51.125Z,22.71
2022-08-27T18:37:37.356Z,22.67
2022-08-27T18:43:29.481Z,22.60
2022-08-27T18:46:04.380Z,22.62
2022-08-27T18:48:41.801Z,22.61
2022-08-27T18:51:24.147Z,22.54
2022-08-27T18:54:15.948Z,22.45
2022-08-27T18:57:01.304Z,22.46
2022-08-27T18:59:59.254Z,22.44
2022-08-27T19:03:27.606Z,22.39
2022-08-27T19:06:00.953Z,22.28
2022-08-27T19:08:57.281Z,22.25
2022-08-27T19:12:26.794Z,22.21
2022-08-27T19:15:22.247Z,22.26
2022-08-27T19:18:05.629Z,22.23
2022-08-27T19:21:14.842Z,22.15
2022-08-27T19:23:54.129Z,22.14
2022-08-27T19:26:42.364Z,22.09
2022-08-27T19:29:15.319Z,22.17
2022-08-27T19:32:54.637Z,22.11
2022-08-27T19:35:22.463Z,22.03
2022-08-27T19:38:42.921Z,21.96
2022-08-27T19:41:28.010Z,21.93
2022-08-27T19:44:37.197Z,21.91
2022-08-27T19:47:11.768Z,21.90
2022-08-27T19:49:55.324Z,21.88
2022-08-27T19:53:07.024Z,21.76
2022-08-27T19:55:57.201Z,21.67
2022-08-27T19:58:56.552Z,21.54
2022-08-27T20:01:41.031Z,21.50
2022-08-27T20:04:32.995Z,21.53
2022-08-27T20:07:31.009Z,21.43
2022-08-27T20:10:41.375Z,21.44
2022-08-27T20:13:52.958Z,21.37
2022-08-27T20:16:32.509Z,21.35
2022-08-27T20:19:35.513Z,21.30
2022-08-27T20:22:24.410Z,21.27
2022-08-27T20:25:33.127Z,21.22
2022-08-27T20:30:26.332Z,21.16
2022-08-27T20:32:02.872Z,21.08
2022-08-27T20:35:29.315Z,21.09
2022-08-27T20:38:24.249Z,21.08
2022-08-27T20:41:10.474Z,21.13
2022-08-27T20:43:52.586Z,21.05
2022-08-27T20:47:26.333Z,21.00
2022-08-27T20:49:41.812Z,20.97
2022-08-27T20:52:25.951Z,21.03
2022-08-27T20:55:04.528Z,21.00
2022-08-27T20:58:03.102Z,21.02
2022-08-27T21:00:40.607Z,20.96
2022-08-27T21:03:16.594Z,20.97
2022-08-27T21:06:02.013Z,20.93
2022-08-27T21:08:56.943Z,20.89
2022-08-27T21:12:29.648Z,20.88
2022-08-27T21:14:57.865Z,20.87
2022-08-27T21:17:30.060Z,20.80
2022-08-27T21:20:18.028Z,20.85
2022-08-27T21:23:05.185Z,20.82
2022-08-27T21:25:44.280Z,20.75
2022-08-27T21:28:33.757Z,20.81
2022-08-27T21:31:40.147Z,20.69
2022-08-27T21:34:36.446Z,20.69
2022-08-27T21:37:30.159Z,20.61
2022-08-27T21:40:22.602Z,20.55
2022-08-27T21:42:58.845Z,20.57
2022-08-27T21:45:33.043Z,20.55
2022-08-27T21:48:10.824Z,20.53
2022-08-27T21:50:59.488Z,20.52
2022-08-27T21:53:56.276Z,20.55
2022-08-27T21:56:27.886Z,20.50
2022-08-27T21:59:03.438Z,20.50
2022-08-27T22:02:38.713Z,20.36
2022-08-27T22:05:11.056Z,20.29
2022-08-27T22:10:25.586Z,20.06
2022-08-27T22:13:10.016Z,20.06
2022-08-27T22:15:49.320Z,19.99
2022-08-27T22:18:27.889Z,19.98
2022-08-27T22:21:14.201Z,19.88
2022-08-27T22:24:22.593Z,19.87
2022-08-27T22:27:26.053Z,19.85
2022-08-27T22:30:00.040Z,19.77
2022-08-27T22:32:35.479Z,19.71
2022-08-27T22:35:12.772Z,19.68
2022-08-27T22:38:19.714Z,19.62
2022-08-27T22:41:28.630Z,19.63
2022-08-27T22:44:12.447Z,19.60
2022-08-27T22:48:30.441Z,19.58
2022-08-27T22:49:53.351Z,19.59
2022-08-27T22:53:02.326Z,19.57
2022-08-27T22:55:34.340Z,19.56
2022-08-27T22:58:10.357Z,19.57
2022-08-27T23:00:55.949Z,19.54
2022-08-27T23:06:52.485Z,19.64
2022-08-27T23:09:40.106Z,19.57
2022-08-27T23:12:33.474Z,19.50
2022-08-27T23:15:48.498Z,19.44
2022-08-27T23:18:14.180Z,19.44
2022-08-27T23:20:51.525Z,19.42
2022-08-27T23:26:49.566Z,19.37
2022-08-27T23:29:48.329Z,19.35
2022-08-27T23:32:22.027Z,19.39
2022-08-27T23:35:20.788Z,19.38
2022-08-27T23:38:04.527Z,19.38
2022-08-27T23:40:44.956Z,19.37
2022-08-27T23:43:38.312Z,19.33
2022-08-27T23:46:41.124Z,19.35
2022-08-27T23:49:46.228Z,19.37
2022-08-27T23:52:34.948Z,19.36
2022-08-27T23:55:17.464Z,19.28
2022-08-27T23:58:03.691Z,19.35
